sensor_id;sensor_type;location;lat;lon;timestamp;P1;durP1;ratioP1;P2;durP2;ratioP2
78183;SDS011;67442;44.570;18.610;2023-07-13T00:01:08;12.13;;;6.32;;
78183;SDS011;67442;44.570;18.610;2023-07-13T00:03:39;14.80;;;7.57;;
78183;SDS011;67442;44.570;18.610;2023-07-13T00:06:10;14.52;;;7.95;;
78183;SDS011;67442;44.570;18.610;2023-07-13T00:08:37;18.92;;;7.65;;
78183;SDS011;67442;44.570;18.610;2023-07-13T00:11:04;11.95;;;6.43;;
78183;SDS011;67442;44.570;18.610;2023-07-13T00:13:35;15.73;;;7.07;;
78183;SDS011;67442;44.570;18.610;2023-07-13T00:16:07;12.73;;;7.32;;
78183;SDS011;67442;44.570;18.610;2023-07-13T00:18:34;21.10;;;7.53;;
78183;SDS011;67442;44.570;18.610;2023-07-13T00:21:05;11.65;;;6.68;;
78183;SDS011;67442;44.570;18.610;2023-07-13T00:23:38;13.77;;;7.25;;
78183;SDS011;67442;44.570;18.610;2023-07-13T00:26:11;12.13;;;6.45;;
78183;SDS011;67442;44.570;18.610;2023-07-13T00:28:38;16.60;;;7.80;;
78183;SDS011;67442;44.570;18.610;2023-07-13T00:31:05;16.27;;;7.28;;
78183;SDS011;67442;44.570;18.610;2023-07-13T00:33:32;15.55;;;6.93;;
78183;SDS011;67442;44.570;18.610;2023-07-13T00:35:59;15.18;;;7.03;;
78183;SDS011;67442;44.570;18.610;2023-07-13T00:38:26;12.43;;;7.05;;
78183;SDS011;67442;44.570;18.610;2023-07-13T00:40:54;12.32;;;6.43;;
78183;SDS011;67442;44.570;18.610;2023-07-13T00:43:22;14.30;;;7.10;;
78183;SDS011;67442;44.570;18.610;2023-07-13T00:48:20;10.95;;;7.03;;
78183;SDS011;67442;44.570;18.610;2023-07-13T00:50:52;13.57;;;7.00;;
78183;SDS011;67442;44.570;18.610;2023-07-13T00:53:27;12.20;;;6.95;;
78183;SDS011;67442;44.570;18.610;2023-07-13T00:55:57;12.38;;;7.07;;
78183;SDS011;67442;44.570;18.610;2023-07-13T00:58:29;10.90;;;6.50;;
78183;SDS011;67442;44.570;18.610;2023-07-13T01:00:55;13.18;;;6.60;;
78183;SDS011;67442;44.570;18.610;2023-07-13T01:03:23;13.30;;;7.13;;
78183;SDS011;67442;44.570;18.610;2023-07-13T01:05:49;12.07;;;6.75;;
78183;SDS011;67442;44.570;18.610;2023-07-13T01:08:21;9.98;;;6.38;;
78183;SDS011;67442;44.570;18.610;2023-07-13T01:10:52;11.68;;;6.72;;
78183;SDS011;67442;44.570;18.610;2023-07-13T01:13:20;10.07;;;6.43;;
78183;SDS011;67442;44.570;18.610;2023-07-13T01:15:51;12.13;;;6.63;;
78183;SDS011;67442;44.570;18.610;2023-07-13T01:18:21;14.27;;;7.28;;
78183;SDS011;67442;44.570;18.610;2023-07-13T01:23:27;11.55;;;6.68;;
78183;SDS011;67442;44.570;18.610;2023-07-13T01:25:58;16.42;;;7.45;;
78183;SDS011;67442;44.570;18.610;2023-07-13T01:28:25;12.18;;;6.25;;
78183;SDS011;67442;44.570;18.610;2023-07-13T01:30:53;11.05;;;6.55;;
78183;SDS011;67442;44.570;18.610;2023-07-13T01:33:21;11.95;;;6.80;;
78183;SDS011;67442;44.570;18.610;2023-07-13T01:35:48;12.13;;;6.22;;
78183;SDS011;67442;44.570;18.610;2023-07-13T01:38:16;11.95;;;6.57;;
78183;SDS011;67442;44.570;18.610;2023-07-13T01:40:45;13.40;;;6.93;;
78183;SDS011;67442;44.570;18.610;2023-07-13T01:43:12;11.95;;;6.35;;
78183;SDS011;67442;44.570;18.610;2023-07-13T01:45:39;16.52;;;7.63;;
78183;SDS011;67442;44.570;18.610;2023-07-13T01:48:06;10.90;;;6.53;;
78183;SDS011;67442;44.570;18.610;2023-07-13T01:50:37;12.13;;;6.85;;
78183;SDS011;67442;44.570;18.610;2023-07-13T01:53:07;10.77;;;6.20;;
78183;SDS011;67442;44.570;18.610;2023-07-13T01:55:34;14.27;;;6.90;;
78183;SDS011;67442;44.570;18.610;2023-07-13T01:58:01;12.48;;;6.55;;
78183;SDS011;67442;44.570;18.610;2023-07-13T02:00:33;11.60;;;6.70;;
78183;SDS011;67442;44.570;18.610;2023-07-13T02:03:00;11.45;;;6.72;;
78183;SDS011;67442;44.570;18.610;2023-07-13T02:05:27;10.18;;;6.28;;
78183;SDS011;67442;44.570;18.610;2023-07-13T02:07:55;13.40;;;6.65;;
78183;SDS011;67442;44.570;18.610;2023-07-13T02:10:22;11.98;;;6.63;;
78183;SDS011;67442;44.570;18.610;2023-07-13T02:12:49;10.30;;;6.10;;
78183;SDS011;67442;44.570;18.610;2023-07-13T02:15:17;10.30;;;6.45;;
78183;SDS011;67442;44.570;18.610;2023-07-13T02:17:44;9.63;;;6.13;;
78183;SDS011;67442;44.570;18.610;2023-07-13T02:20:12;13.00;;;6.72;;
78183;SDS011;67442;44.570;18.610;2023-07-13T02:22:39;15.63;;;6.55;;
78183;SDS011;67442;44.570;18.610;2023-07-13T02:25:06;10.45;;;5.80;;
78183;SDS011;67442;44.570;18.610;2023-07-13T02:27:34;12.30;;;6.85;;
78183;SDS011;67442;44.570;18.610;2023-07-13T02:30:02;11.15;;;6.35;;
78183;SDS011;67442;44.570;18.610;2023-07-13T02:32:32;11.18;;;6.47;;
78183;SDS011;67442;44.570;18.610;2023-07-13T02:34:59;11.20;;;6.05;;
78183;SDS011;67442;44.570;18.610;2023-07-13T02:37:26;12.65;;;6.88;;
78183;SDS011;67442;44.570;18.610;2023-07-13T02:39:53;13.68;;;6.45;;
78183;SDS011;67442;44.570;18.610;2023-07-13T02:42:21;10.93;;;6.22;;
78183;SDS011;67442;44.570;18.610;2023-07-13T02:44:48;8.55;;;5.80;;
78183;SDS011;67442;44.570;18.610;2023-07-13T02:47:16;10.05;;;6.07;;
78183;SDS011;67442;44.570;18.610;2023-07-13T02:49:43;11.32;;;6.15;;
78183;SDS011;67442;44.570;18.610;2023-07-13T02:52:10;9.30;;;5.60;;
78183;SDS011;67442;44.570;18.610;2023-07-13T02:54:38;10.40;;;6.45;;
78183;SDS011;67442;44.570;18.610;2023-07-13T02:57:05;12.25;;;6.38;;
78183;SDS011;67442;44.570;18.610;2023-07-13T02:59:37;12.75;;;6.35;;
78183;SDS011;67442;44.570;18.610;2023-07-13T03:02:04;9.82;;;6.18;;
78183;SDS011;67442;44.570;18.610;2023-07-13T03:04:32;11.02;;;6.07;;
78183;SDS011;67442;44.570;18.610;2023-07-13T03:06:59;12.10;;;6.55;;
78183;SDS011;67442;44.570;18.610;2023-07-13T03:09:26;9.20;;;5.63;;
78183;SDS011;67442;44.570;18.610;2023-07-13T03:11:57;11.90;;;6.03;;
78183;SDS011;67442;44.570;18.610;2023-07-13T03:14:24;12.13;;;6.05;;
78183;SDS011;67442;44.570;18.610;2023-07-13T03:16:51;9.90;;;6.03;;
78183;SDS011;67442;44.570;18.610;2023-07-13T03:19:18;11.00;;;5.88;;
78183;SDS011;67442;44.570;18.610;2023-07-13T03:21:46;12.02;;;6.07;;
78183;SDS011;67442;44.570;18.610;2023-07-13T03:24:13;13.77;;;6.57;;
78183;SDS011;67442;44.570;18.610;2023-07-13T03:26:46;9.18;;;5.85;;
78183;SDS011;67442;44.570;18.610;2023-07-13T03:29:17;11.88;;;6.47;;
78183;SDS011;67442;44.570;18.610;2023-07-13T03:31:48;11.68;;;6.40;;
78183;SDS011;67442;44.570;18.610;2023-07-13T03:34:15;9.75;;;6.07;;
78183;SDS011;67442;44.570;18.610;2023-07-13T03:36:42;10.55;;;6.20;;
78183;SDS011;67442;44.570;18.610;2023-07-13T03:39:09;12.05;;;6.40;;
78183;SDS011;67442;44.570;18.610;2023-07-13T03:41:37;9.40;;;5.53;;
78183;SDS011;67442;44.570;18.610;2023-07-13T03:44:04;9.25;;;5.78;;
78183;SDS011;67442;44.570;18.610;2023-07-13T03:46:34;10.80;;;5.57;;
78183;SDS011;67442;44.570;18.610;2023-07-13T03:49:05;9.18;;;5.45;;
78183;SDS011;67442;44.570;18.610;2023-07-13T03:51:33;9.88;;;5.78;;
78183;SDS011;67442;44.570;18.610;2023-07-13T03:54:04;8.52;;;5.55;;
78183;SDS011;67442;44.570;18.610;2023-07-13T03:56:35;10.57;;;6.18;;
78183;SDS011;67442;44.570;18.610;2023-07-13T03:59:02;12.07;;;6.57;;
78183;SDS011;67442;44.570;18.610;2023-07-13T04:01:30;9.23;;;5.65;;
78183;SDS011;67442;44.570;18.610;2023-07-13T04:03:57;9.70;;;5.97;;
78183;SDS011;67442;44.570;18.610;2023-07-13T04:06:28;13.85;;;5.90;;
78183;SDS011;67442;44.570;18.610;2023-07-13T04:08:58;8.02;;;5.53;;
78183;SDS011;67442;44.570;18.610;2023-07-13T04:11:26;8.80;;;5.75;;
78183;SDS011;67442;44.570;18.610;2023-07-13T04:13:54;10.13;;;6.35;;
78183;SDS011;67442;44.570;18.610;2023-07-13T04:16:25;10.98;;;6.05;;
78183;SDS011;67442;44.570;18.610;2023-07-13T04:18:52;12.98;;;7.32;;
78183;SDS011;67442;44.570;18.610;2023-07-13T04:21:24;12.75;;;7.28;;
78183;SDS011;67442;44.570;18.610;2023-07-13T04:23:52;13.52;;;7.22;;
78183;SDS011;67442;44.570;18.610;2023-07-13T04:26:19;16.02;;;7.57;;
78183;SDS011;67442;44.570;18.610;2023-07-13T04:28:50;17.85;;;7.70;;
78183;SDS011;67442;44.570;18.610;2023-07-13T04:31:17;14.25;;;7.50;;
78183;SDS011;67442;44.570;18.610;2023-07-13T04:33:44;13.80;;;6.85;;
78183;SDS011;67442;44.570;18.610;2023-07-13T04:36:15;13.68;;;7.78;;
78183;SDS011;67442;44.570;18.610;2023-07-13T04:38:46;12.32;;;7.63;;
78183;SDS011;67442;44.570;18.610;2023-07-13T04:41:13;9.98;;;6.25;;
78183;SDS011;67442;44.570;18.610;2023-07-13T04:43:40;61.90;;;12.30;;
78183;SDS011;67442;44.570;18.610;2023-07-13T04:46:10;87.60;;;18.35;;
78183;SDS011;67442;44.570;18.610;2023-07-13T04:48:38;121.60;;;23.13;;
78183;SDS011;67442;44.570;18.610;2023-07-13T04:51:05;151.90;;;28.20;;
78183;SDS011;67442;44.570;18.610;2023-07-13T04:53:33;186.75;;;38.88;;
78183;SDS011;67442;44.570;18.610;2023-07-13T04:56:00;189.52;;;37.88;;
78183;SDS011;67442;44.570;18.610;2023-07-13T04:58:27;196.93;;;38.92;;
78183;SDS011;67442;44.570;18.610;2023-07-13T05:01:04;162.77;;;35.60;;
78183;SDS011;67442;44.570;18.610;2023-07-13T05:03:41;180.55;;;39.25;;
78183;SDS011;67442;44.570;18.610;2023-07-13T05:06:09;204.68;;;41.63;;
78183;SDS011;67442;44.570;18.610;2023-07-13T05:08:41;174.73;;;38.88;;
78183;SDS011;67442;44.570;18.610;2023-07-13T05:11:09;172.25;;;39.65;;
78183;SDS011;67442;44.570;18.610;2023-07-13T05:13:39;189.50;;;42.05;;
78183;SDS011;67442;44.570;18.610;2023-07-13T05:16:06;202.60;;;43.58;;
78183;SDS011;67442;44.570;18.610;2023-07-13T05:18:34;181.73;;;41.38;;
78183;SDS011;67442;44.570;18.610;2023-07-13T05:21:05;178.80;;;39.72;;
78183;SDS011;67442;44.570;18.610;2023-07-13T05:23:37;194.13;;;42.00;;
78183;SDS011;67442;44.570;18.610;2023-07-13T05:26:10;196.48;;;41.28;;
78183;SDS011;67442;44.570;18.610;2023-07-13T05:28:37;183.75;;;40.17;;
78183;SDS011;67442;44.570;18.610;2023-07-13T05:31:04;197.75;;;41.30;;
78183;SDS011;67442;44.570;18.610;2023-07-13T05:33:32;177.50;;;41.15;;
78183;SDS011;67442;44.570;18.610;2023-07-13T05:35:59;184.30;;;41.03;;
78183;SDS011;67442;44.570;18.610;2023-07-13T05:38:30;178.50;;;43.50;;
78183;SDS011;67442;44.570;18.610;2023-07-13T05:40:57;186.00;;;42.88;;
78183;SDS011;67442;44.570;18.610;2023-07-13T05:43:28;189.10;;;40.97;;
78183;SDS011;67442;44.570;18.610;2023-07-13T05:45:59;190.50;;;41.97;;
78183;SDS011;67442;44.570;18.610;2023-07-13T05:48:26;185.43;;;41.60;;
78183;SDS011;67442;44.570;18.610;2023-07-13T05:50:53;174.40;;;40.88;;
78183;SDS011;67442;44.570;18.610;2023-07-13T05:53:21;188.68;;;43.03;;
78183;SDS011;67442;44.570;18.610;2023-07-13T05:55:48;169.32;;;40.95;;
78183;SDS011;67442;44.570;18.610;2023-07-13T05:58:19;155.15;;;39.70;;
78183;SDS011;67442;44.570;18.610;2023-07-13T06:00:57;159.52;;;41.70;;
78183;SDS011;67442;44.570;18.610;2023-07-13T06:03:30;161.50;;;39.42;;
78183;SDS011;67442;44.570;18.610;2023-07-13T06:05:57;144.52;;;37.08;;
78183;SDS011;67442;44.570;18.610;2023-07-13T06:08:28;153.02;;;37.80;;
78183;SDS011;67442;44.570;18.610;2023-07-13T06:11:20;151.07;;;38.65;;
78183;SDS011;67442;44.570;18.610;2023-07-13T06:13:46;150.80;;;36.72;;
78183;SDS011;67442;44.570;18.610;2023-07-13T06:16:18;138.45;;;36.72;;
78183;SDS011;67442;44.570;18.610;2023-07-13T06:18:45;138.90;;;34.25;;
78183;SDS011;67442;44.570;18.610;2023-07-13T06:21:16;142.57;;;36.38;;
78183;SDS011;67442;44.570;18.610;2023-07-13T06:23:49;151.35;;;37.33;;
78183;SDS011;67442;44.570;18.610;2023-07-13T06:26:21;142.70;;;36.47;;
78183;SDS011;67442;44.570;18.610;2023-07-13T06:28:49;140.55;;;37.08;;
78183;SDS011;67442;44.570;18.610;2023-07-13T06:31:19;137.52;;;35.58;;
78183;SDS011;67442;44.570;18.610;2023-07-13T06:33:46;132.25;;;34.13;;
78183;SDS011;67442;44.570;18.610;2023-07-13T06:36:17;131.77;;;34.63;;
78183;SDS011;67442;44.570;18.610;2023-07-13T06:38:44;131.65;;;33.90;;
78183;SDS011;67442;44.570;18.610;2023-07-13T06:41:12;126.75;;;34.95;;
78183;SDS011;67442;44.570;18.610;2023-07-13T06:43:38;139.63;;;35.05;;
78183;SDS011;67442;44.570;18.610;2023-07-13T06:46:06;113.38;;;32.20;;
78183;SDS011;67442;44.570;18.610;2023-07-13T06:48:36;112.35;;;32.70;;
78183;SDS011;67442;44.570;18.610;2023-07-13T06:51:07;120.07;;;34.25;;
78183;SDS011;67442;44.570;18.610;2023-07-13T06:53:37;139.23;;;33.92;;
78183;SDS011;67442;44.570;18.610;2023-07-13T06:56:05;127.55;;;35.40;;
78183;SDS011;67442;44.570;18.610;2023-07-13T06:58:33;120.60;;;33.95;;
78183;SDS011;67442;44.570;18.610;2023-07-13T07:01:00;122.10;;;35.55;;
78183;SDS011;67442;44.570;18.610;2023-07-13T07:03:27;135.88;;;35.28;;
78183;SDS011;67442;44.570;18.610;2023-07-13T07:05:59;124.63;;;33.85;;
78183;SDS011;67442;44.570;18.610;2023-07-13T07:08:31;123.18;;;33.97;;
78183;SDS011;67442;44.570;18.610;2023-07-13T07:11:02;124.72;;;35.85;;
78183;SDS011;67442;44.570;18.610;2023-07-13T07:13:33;122.88;;;33.78;;
78183;SDS011;67442;44.570;18.610;2023-07-13T07:15:59;109.50;;;31.90;;
78183;SDS011;67442;44.570;18.610;2023-07-13T07:18:27;121.38;;;35.58;;
78183;SDS011;67442;44.570;18.610;2023-07-13T07:20:58;122.13;;;34.75;;
78183;SDS011;67442;44.570;18.610;2023-07-13T07:23:29;118.30;;;33.38;;
78183;SDS011;67442;44.570;18.610;2023-07-13T07:25:55;118.65;;;34.65;;
78183;SDS011;67442;44.570;18.610;2023-07-13T07:28:24;109.38;;;32.85;;
78183;SDS011;67442;44.570;18.610;2023-07-13T07:30:52;114.68;;;34.63;;
78183;SDS011;67442;44.570;18.610;2023-07-13T07:33:19;108.88;;;33.55;;
78183;SDS011;67442;44.570;18.610;2023-07-13T07:35:50;112.03;;;32.65;;
78183;SDS011;67442;44.570;18.610;2023-07-13T07:38:17;107.30;;;33.42;;
78183;SDS011;67442;44.570;18.610;2023-07-13T07:40:43;121.82;;;33.72;;
78183;SDS011;67442;44.570;18.610;2023-07-13T07:43:10;116.78;;;32.45;;
78183;SDS011;67442;44.570;18.610;2023-07-13T07:45:38;107.82;;;31.60;;
78183;SDS011;67442;44.570;18.610;2023-07-13T07:48:05;107.55;;;33.53;;
78183;SDS011;67442;44.570;18.610;2023-07-13T07:50:32;113.47;;;34.33;;
78183;SDS011;67442;44.570;18.610;2023-07-13T07:52:59;110.13;;;33.63;;
78183;SDS011;67442;44.570;18.610;2023-07-13T07:55:27;111.07;;;33.70;;
78183;SDS011;67442;44.570;18.610;2023-07-13T07:57:58;114.53;;;32.80;;
78183;SDS011;67442;44.570;18.610;2023-07-13T08:00:25;110.13;;;32.70;;
78183;SDS011;67442;44.570;18.610;2023-07-13T08:02:53;99.30;;;30.77;;
78183;SDS011;67442;44.570;18.610;2023-07-13T08:05:20;107.30;;;31.80;;
78183;SDS011;67442;44.570;18.610;2023-07-13T08:07:51;106.68;;;31.83;;
78183;SDS011;67442;44.570;18.610;2023-07-13T08:10:19;109.30;;;31.60;;
78183;SDS011;67442;44.570;18.610;2023-07-13T08:12:45;100.80;;;30.73;;
78183;SDS011;67442;44.570;18.610;2023-07-13T08:15:18;104.70;;;30.70;;
78183;SDS011;67442;44.570;18.610;2023-07-13T08:17:47;103.25;;;31.67;;
78183;SDS011;67442;44.570;18.610;2023-07-13T08:20:14;99.07;;;30.20;;
78183;SDS011;67442;44.570;18.610;2023-07-13T08:22:41;97.72;;;30.60;;
78183;SDS011;67442;44.570;18.610;2023-07-13T08:25:11;94.80;;;30.73;;
78183;SDS011;67442;44.570;18.610;2023-07-13T08:27:39;90.82;;;29.73;;
78183;SDS011;67442;44.570;18.610;2023-07-13T08:30:06;98.63;;;30.33;;
78183;SDS011;67442;44.570;18.610;2023-07-13T08:32:36;99.10;;;31.13;;
78183;SDS011;67442;44.570;18.610;2023-07-13T08:35:04;97.05;;;30.85;;
78183;SDS011;67442;44.570;18.610;2023-07-13T08:37:32;94.38;;;30.40;;
78183;SDS011;67442;44.570;18.610;2023-07-13T08:39:59;88.47;;;28.02;;
78183;SDS011;67442;44.570;18.610;2023-07-13T08:42:32;96.72;;;29.70;;
78183;SDS011;67442;44.570;18.610;2023-07-13T08:47:57;88.18;;;27.60;;
78183;SDS011;67442;44.570;18.610;2023-07-13T08:50:51;90.90;;;27.77;;
78183;SDS011;67442;44.570;18.610;2023-07-13T08:53:22;90.78;;;29.40;;
78183;SDS011;67442;44.570;18.610;2023-07-13T08:55:57;79.10;;;26.88;;
78183;SDS011;67442;44.570;18.610;2023-07-13T08:58:26;84.85;;;28.73;;
78183;SDS011;67442;44.570;18.610;2023-07-13T09:03:57;84.13;;;27.92;;
78183;SDS011;67442;44.570;18.610;2023-07-13T09:06:45;88.93;;;28.67;;
78183;SDS011;67442;44.570;18.610;2023-07-13T09:15:14;86.30;;;27.92;;
78183;SDS011;67442;44.570;18.610;2023-07-13T09:20:51;75.38;;;27.17;;
78183;SDS011;67442;44.570;18.610;2023-07-13T09:23:26;87.68;;;27.25;;
78183;SDS011;67442;44.570;18.610;2023-07-13T09:26:14;79.35;;;27.13;;
78183;SDS011;67442;44.570;18.610;2023-07-13T09:28:48;77.43;;;27.20;;
78183;SDS011;67442;44.570;18.610;2023-07-13T09:31:37;77.63;;;27.35;;
78183;SDS011;67442;44.570;18.610;2023-07-13T09:34:09;80.13;;;27.83;;
78183;SDS011;67442;44.570;18.610;2023-07-13T09:36:37;84.72;;;26.70;;
78183;SDS011;67442;44.570;18.610;2023-07-13T09:44:12;83.82;;;26.98;;
78183;SDS011;67442;44.570;18.610;2023-07-13T09:46:47;77.35;;;25.33;;
78183;SDS011;67442;44.570;18.610;2023-07-13T09:49:27;77.47;;;26.52;;
78183;SDS011;67442;44.570;18.610;2023-07-13T09:52:00;74.82;;;26.73;;
78183;SDS011;67442;44.570;18.610;2023-07-13T09:54:34;71.78;;;25.67;;
78183;SDS011;67442;44.570;18.610;2023-07-13T09:57:03;81.25;;;26.13;;
78183;SDS011;67442;44.570;18.610;2023-07-13T09:59:43;75.28;;;25.70;;
78183;SDS011;67442;44.570;18.610;2023-07-13T10:02:33;73.07;;;25.90;;
78183;SDS011;67442;44.570;18.610;2023-07-13T10:07:44;80.38;;;25.40;;
78183;SDS011;67442;44.570;18.610;2023-07-13T10:10:18;75.22;;;25.83;;
78183;SDS011;67442;44.570;18.610;2023-07-13T10:12:47;74.28;;;25.42;;
78183;SDS011;67442;44.570;18.610;2023-07-13T10:15:21;65.83;;;24.10;;
78183;SDS011;67442;44.570;18.610;2023-07-13T10:17:50;76.10;;;25.98;;
78183;SDS011;67442;44.570;18.610;2023-07-13T10:20:23;67.45;;;24.25;;
78183;SDS011;67442;44.570;18.610;2023-07-13T10:23:05;79.15;;;25.15;;
78183;SDS011;67442;44.570;18.610;2023-07-13T10:25:40;63.97;;;23.80;;
78183;SDS011;67442;44.570;18.610;2023-07-13T10:30:58;67.45;;;24.27;;
78183;SDS011;67442;44.570;18.610;2023-07-13T10:33:28;65.85;;;23.63;;
78183;SDS011;67442;44.570;18.610;2023-07-13T10:38:53;71.30;;;24.85;;
78183;SDS011;67442;44.570;18.610;2023-07-13T10:41:24;71.28;;;24.80;;
78183;SDS011;67442;44.570;18.610;2023-07-13T10:43:53;65.68;;;23.67;;
78183;SDS011;67442;44.570;18.610;2023-07-13T10:46:24;60.13;;;23.92;;
78183;SDS011;67442;44.570;18.610;2023-07-13T10:48:59;59.40;;;22.65;;
78183;SDS011;67442;44.570;18.610;2023-07-13T10:51:34;67.82;;;24.30;;
78183;SDS011;67442;44.570;18.610;2023-07-13T10:54:14;65.38;;;23.00;;
78183;SDS011;67442;44.570;18.610;2023-07-13T10:57:33;68.53;;;23.23;;
78183;SDS011;67442;44.570;18.610;2023-07-13T10:59:38;67.10;;;23.65;;
78183;SDS011;67442;44.570;18.610;2023-07-13T11:02:15;67.93;;;23.17;;
78183;SDS011;67442;44.570;18.610;2023-07-13T11:04:55;65.32;;;23.50;;
78183;SDS011;67442;44.570;18.610;2023-07-13T11:07:27;68.25;;;23.80;;
78183;SDS011;67442;44.570;18.610;2023-07-13T11:10:03;62.83;;;23.65;;
78183;SDS011;67442;44.570;18.610;2023-07-13T11:15:13;58.22;;;22.65;;
78183;SDS011;67442;44.570;18.610;2023-07-13T11:17:50;57.22;;;22.83;;
78183;SDS011;67442;44.570;18.610;2023-07-13T11:20:38;55.95;;;22.30;;
78183;SDS011;67442;44.570;18.610;2023-07-13T11:25:38;63.97;;;23.00;;
78183;SDS011;67442;44.570;18.610;2023-07-13T11:30:46;66.05;;;24.63;;
78183;SDS011;67442;44.570;18.610;2023-07-13T11:33:24;54.17;;;21.73;;
78183;SDS011;67442;44.570;18.610;2023-07-13T11:36:15;63.42;;;22.55;;
78183;SDS011;67442;44.570;18.610;2023-07-13T11:38:47;57.15;;;21.58;;
78183;SDS011;67442;44.570;18.610;2023-07-13T11:41:25;58.33;;;21.95;;
78183;SDS011;67442;44.570;18.610;2023-07-13T11:44:22;59.50;;;22.88;;
78183;SDS011;67442;44.570;18.610;2023-07-13T11:46:55;53.45;;;20.98;;
78183;SDS011;67442;44.570;18.610;2023-07-13T11:49:30;49.42;;;20.58;;
78183;SDS011;67442;44.570;18.610;2023-07-13T11:52:00;61.30;;;23.25;;
78183;SDS011;67442;44.570;18.610;2023-07-13T11:54:43;65.25;;;21.80;;
78183;SDS011;67442;44.570;18.610;2023-07-13T11:59:53;56.17;;;20.42;;
78183;SDS011;67442;44.570;18.610;2023-07-13T12:02:28;58.85;;;22.52;;
78183;SDS011;67442;44.570;18.610;2023-07-13T12:05:04;56.28;;;20.33;;
78183;SDS011;67442;44.570;18.610;2023-07-13T12:07:32;51.90;;;20.05;;
78183;SDS011;67442;44.570;18.610;2023-07-13T12:10:42;57.10;;;21.42;;
78183;SDS011;67442;44.570;18.610;2023-07-13T12:13:00;57.90;;;21.20;;
78183;SDS011;67442;44.570;18.610;2023-07-13T12:15:32;51.53;;;19.65;;
78183;SDS011;67442;44.570;18.610;2023-07-13T12:18:16;58.95;;;21.83;;
78183;SDS011;67442;44.570;18.610;2023-07-13T12:20:48;57.70;;;20.40;;
78183;SDS011;67442;44.570;18.610;2023-07-13T12:23:25;54.22;;;21.23;;
78183;SDS011;67442;44.570;18.610;2023-07-13T12:25:58;51.28;;;20.63;;
78183;SDS011;67442;44.570;18.610;2023-07-13T12:30:59;57.92;;;20.45;;
78183;SDS011;67442;44.570;18.610;2023-07-13T12:33:44;48.42;;;19.52;;
78183;SDS011;67442;44.570;18.610;2023-07-13T12:36:12;49.38;;;20.25;;
78183;SDS011;67442;44.570;18.610;2023-07-13T12:38:44;48.60;;;20.38;;
78183;SDS011;67442;44.570;18.610;2023-07-13T12:41:12;43.58;;;19.00;;
78183;SDS011;67442;44.570;18.610;2023-07-13T12:43:45;51.35;;;20.20;;
78183;SDS011;67442;44.570;18.610;2023-07-13T12:46:20;54.40;;;21.27;;
78183;SDS011;67442;44.570;18.610;2023-07-13T12:48:51;46.17;;;20.13;;
78183;SDS011;67442;44.570;18.610;2023-07-13T12:51:24;54.20;;;19.25;;
78183;SDS011;67442;44.570;18.610;2023-07-13T12:53:57;49.28;;;19.35;;
78183;SDS011;67442;44.570;18.610;2023-07-13T12:56:45;55.55;;;19.38;;
78183;SDS011;67442;44.570;18.610;2023-07-13T12:59:20;46.30;;;19.40;;
78183;SDS011;67442;44.570;18.610;2023-07-13T13:01:51;49.17;;;19.25;;
78183;SDS011;67442;44.570;18.610;2023-07-13T13:04:19;48.33;;;18.85;;
78183;SDS011;67442;44.570;18.610;2023-07-13T13:07:00;47.20;;;19.55;;
78183;SDS011;67442;44.570;18.610;2023-07-13T13:09:28;56.17;;;20.55;;
78183;SDS011;67442;44.570;18.610;2023-07-13T13:11:54;48.75;;;19.05;;
78183;SDS011;67442;44.570;18.610;2023-07-13T13:14:22;51.55;;;20.30;;
78183;SDS011;67442;44.570;18.610;2023-07-13T13:16:53;46.85;;;18.83;;
78183;SDS011;67442;44.570;18.610;2023-07-13T13:19:26;44.03;;;18.08;;
78183;SDS011;67442;44.570;18.610;2023-07-13T13:21:58;46.53;;;18.42;;
78183;SDS011;67442;44.570;18.610;2023-07-13T13:24:30;44.53;;;18.73;;
78183;SDS011;67442;44.570;18.610;2023-07-13T13:26:58;46.28;;;18.13;;
78183;SDS011;67442;44.570;18.610;2023-07-13T13:29:31;43.58;;;18.30;;
78183;SDS011;67442;44.570;18.610;2023-07-13T13:32:02;38.70;;;17.48;;
78183;SDS011;67442;44.570;18.610;2023-07-13T13:34:30;51.40;;;19.60;;
78183;SDS011;67442;44.570;18.610;2023-07-13T13:37:02;44.05;;;18.30;;
78183;SDS011;67442;44.570;18.610;2023-07-13T13:39:35;42.65;;;18.55;;
78183;SDS011;67442;44.570;18.610;2023-07-13T13:42:08;49.00;;;19.67;;
78183;SDS011;67442;44.570;18.610;2023-07-13T13:44:35;42.22;;;18.63;;
78183;SDS011;67442;44.570;18.610;2023-07-13T13:47:03;37.70;;;16.67;;
78183;SDS011;67442;44.570;18.610;2023-07-13T13:49:34;46.88;;;18.25;;
78183;SDS011;67442;44.570;18.610;2023-07-13T13:52:08;48.72;;;19.52;;
78183;SDS011;67442;44.570;18.610;2023-07-13T13:54:35;44.25;;;19.05;;
78183;SDS011;67442;44.570;18.610;2023-07-13T13:57:03;46.33;;;18.75;;
78183;SDS011;67442;44.570;18.610;2023-07-13T13:59:32;44.53;;;18.65;;
78183;SDS011;67442;44.570;18.610;2023-07-13T14:04:57;43.00;;;18.23;;
78183;SDS011;67442;44.570;18.610;2023-07-13T14:07:26;43.30;;;17.55;;
78183;SDS011;67442;44.570;18.610;2023-07-13T14:10:00;42.43;;;17.60;;
78183;SDS011;67442;44.570;18.610;2023-07-13T14:12:28;46.85;;;18.40;;
78183;SDS011;67442;44.570;18.610;2023-07-13T14:14:56;40.42;;;18.13;;
78183;SDS011;67442;44.570;18.610;2023-07-13T14:17:24;46.05;;;17.45;;
78183;SDS011;67442;44.570;18.610;2023-07-13T14:19:52;43.50;;;18.23;;
78183;SDS011;67442;44.570;18.610;2023-07-13T14:22:23;44.15;;;18.20;;
78183;SDS011;67442;44.570;18.610;2023-07-13T14:24:52;40.00;;;16.75;;
78183;SDS011;67442;44.570;18.610;2023-07-13T14:27:26;43.28;;;17.02;;
78183;SDS011;67442;44.570;18.610;2023-07-13T14:29:58;40.17;;;16.80;;
78183;SDS011;67442;44.570;18.610;2023-07-13T14:32:29;44.58;;;18.25;;
78183;SDS011;67442;44.570;18.610;2023-07-13T14:35:00;48.08;;;17.88;;
78183;SDS011;67442;44.570;18.610;2023-07-13T14:37:28;42.60;;;16.67;;
78183;SDS011;67442;44.570;18.610;2023-07-13T14:39:59;36.55;;;16.70;;
78183;SDS011;67442;44.570;18.610;2023-07-13T14:42:26;39.72;;;15.98;;
78183;SDS011;67442;44.570;18.610;2023-07-13T14:44:53;31.73;;;14.73;;
78183;SDS011;67442;44.570;18.610;2023-07-13T14:47:25;38.38;;;15.07;;
78183;SDS011;67442;44.570;18.610;2023-07-13T14:49:52;42.45;;;16.13;;
78183;SDS011;67442;44.570;18.610;2023-07-13T14:52:20;36.30;;;15.57;;
78183;SDS011;67442;44.570;18.610;2023-07-13T14:54:49;41.05;;;15.80;;
78183;SDS011;67442;44.570;18.610;2023-07-13T14:57:19;36.65;;;15.95;;
78183;SDS011;67442;44.570;18.610;2023-07-13T14:59:47;33.65;;;14.82;;
78183;SDS011;67442;44.570;18.610;2023-07-13T15:02:35;37.85;;;15.75;;
78183;SDS011;67442;44.570;18.610;2023-07-13T15:08:05;40.92;;;15.27;;
78183;SDS011;67442;44.570;18.610;2023-07-13T15:10:34;39.42;;;16.30;;
78183;SDS011;67442;44.570;18.610;2023-07-13T15:13:20;33.67;;;15.07;;
78183;SDS011;67442;44.570;18.610;2023-07-13T15:16:24;37.72;;;15.05;;
78183;SDS011;67442;44.570;18.610;2023-07-13T15:18:54;38.20;;;15.90;;
78183;SDS011;67442;44.570;18.610;2023-07-13T15:21:23;29.48;;;14.82;;
78183;SDS011;67442;44.570;18.610;2023-07-13T15:23:51;36.42;;;14.35;;